Time;durP1;ratioP1;P1;durP2;ratioP2;P2;SDS_P1;SDS_P2;PMS_P1;PMS_P2;Temp;Humidity;BMP_temperature;BMP_pressure;BME280_temperature;BME280_humidity;BME280_pressure;Samples;Min_cycle;Max_cycle;Signal;HPM_P1;HPM_P2
2022/07/27 00:01:38;;;;;;;17.45;2.35;;;;;;;;;;5074653;28;20100;-76
2022/07/27 00:04:04;;;;;;;12.93;3.03;;;;;;;;;;5074076;28;20028;-76
2022/07/27 00:06:30;;;;;;;11.05;2.33;;;;;;;;;;5073549;28;20111;-76
2022/07/27 00:08:56;;;;;;;10.95;1.95;;;;;;;;;;5074272;28;20060;-76
2022/07/27 00:11:22;;;;;;;15.25;1.92;;;;;;;;;;5073475;28;20028;-79
2022/07/27 00:13:48;;;;;;;12.57;2.40;;;;;;;;;;5080572;28;20021;-79
2022/07/27 00:16:14;;;;;;;11.50;2.05;;;;;;;;;;5081083;28;20101;-79
2022/07/27 00:18:40;;;;;;;18.27;2.38;;;;;;;;;;5080203;28;20033;-79
2022/07/27 00:21:07;;;;;;;15.15;1.98;;;;;;;;;;5073231;28;20024;-79
2022/07/27 00:23:33;;;;;;;11.82;2.00;;;;;;;;;;5086550;28;20080;-81
2022/07/27 00:25:59;;;;;;;10.05;1.90;;;;;;;;;;5094640;28;20047;-77
2022/07/27 00:28:25;;;;;;;8.43;1.83;;;;;;;;;;5073203;28;20025;-79
2022/07/27 00:30:51;;;;;;;14.48;2.13;;;;;;;;;;5073488;28;20026;-76
2022/07/27 00:33:17;;;;;;;19.25;2.35;;;;;;;;;;5073144;28;20036;-77
2022/07/27 00:35:43;;;;;;;13.65;1.98;;;;;;;;;;5072172;28;20029;-79
2022/07/27 00:38:09;;;;;;;10.90;1.75;;;;;;;;;;5072543;28;20099;-77
2022/07/27 00:40:35;;;;;;;11.88;2.22;;;;;;;;;;5071772;28;20519;-76
2022/07/27 00:43:00;;;;;;;12.75;2.33;;;;;;;;;;5072597;28;20370;-78
2022/07/27 00:45:26;;;;;;;11.00;2.20;;;;;;;;;;5072169;28;20031;-77
2022/07/27 00:47:52;;;;;;;9.10;2.13;;;;;;;;;;5072624;28;20029;-77
2022/07/27 00:50:18;;;;;;;13.95;2.22;;;;;;;;;;5071045;28;20082;-76
2022/07/27 00:52:44;;;;;;;15.20;2.30;;;;;;;;;;5072941;28;20124;-78
2022/07/27 00:55:11;;;;;;;16.08;3.00;;;;;;;;;;5071797;28;20036;-78
2022/07/27 00:57:37;;;;;;;9.77;2.10;;;;;;;;;;5073995;28;20047;-78
2022/07/27 01:00:03;;;;;;;10.68;2.40;;;;;;;;;;5075848;28;20438;-78
2022/07/27 01:02:29;;;;;;;14.98;2.20;;;;;;;;;;5075531;28;20462;-79
2022/07/27 01:04:55;;;;;;;9.75;2.05;;;;;;;;;;5075362;28;20032;-79
2022/07/27 01:07:22;;;;;;;14.00;1.95;;;;;;;;;;5075483;28;20028;-78
2022/07/27 01:09:57;;;;;;;14.40;1.92;;;;;;;;;;5075365;28;20020;-78
2022/07/27 01:12:28;;;;;;;17.35;2.10;;;;;;;;;;5075405;28;20027;-78
2022/07/27 01:14:55;;;;;;;15.98;2.50;;;;;;;;;;5075756;28;20113;-77
2022/07/27 01:17:21;;;;;;;14.70;2.63;;;;;;;;;;5075256;28;20048;-77
2022/07/27 01:19:47;;;;;;;13.57;2.35;;;;;;;;;;5075258;28;20105;-77
2022/07/27 01:22:13;;;;;;;12.73;2.88;;;;;;;;;;5073694;28;20028;-77
2022/07/27 01:24:39;;;;;;;11.57;1.90;;;;;;;;;;5074106;28;20035;-77
2022/07/27 01:27:06;;;;;;;8.43;1.90;;;;;;;;;;5074827;28;20059;-78
2022/07/27 01:29:32;;;;;;;9.55;1.75;;;;;;;;;;5075620;28;20147;-78
2022/07/27 01:31:58;;;;;;;15.40;1.73;;;;;;;;;;5075649;28;20031;-79
2022/07/27 01:34:25;;;;;;;10.18;1.90;;;;;;;;;;5075232;28;20381;-78
2022/07/27 01:36:51;;;;;;;10.52;1.88;;;;;;;;;;5075529;28;20024;-76
2022/07/27 01:39:18;;;;;;;13.30;2.20;;;;;;;;;;5076259;28;20021;-78
2022/07/27 01:41:44;;;;;;;12.07;1.95;;;;;;;;;;5075032;28;20029;-78
2022/07/27 01:44:10;;;;;;;10.32;2.15;;;;;;;;;;5075500;28;20032;-78
2022/07/27 01:46:36;;;;;;;11.10;1.90;;;;;;;;;;5074697;28;20377;-77
2022/07/27 01:49:03;;;;;;;9.60;1.80;;;;;;;;;;5076361;28;20039;-76
2022/07/27 01:51:29;;;;;;;12.90;2.28;;;;;;;;;;5075425;28;20024;-79
2022/07/27 01:53:55;;;;;;;13.68;3.05;;;;;;;;;;5075918;28;20543;-77
2022/07/27 01:56:21;;;;;;;13.02;2.25;;;;;;;;;;5075575;28;20052;-77
2022/07/27 01:58:47;;;;;;;19.35;2.33;;;;;;;;;;5080708;28;20039;-78
2022/07/27 02:01:13;;;;;;;11.18;2.25;;;;;;;;;;5078720;28;20281;-77
2022/07/27 02:03:39;;;;;;;18.05;2.35;;;;;;;;;;5079499;28;20532;-77
2022/07/27 02:06:05;;;;;;;10.80;2.13;;;;;;;;;;5078614;28;20444;-77
2022/07/27 02:08:31;;;;;;;15.10;2.03;;;;;;;;;;5075831;28;20032;-78
2022/07/27 02:13:46;;;;;;;14.18;2.05;;;;;;;;;;5076452;28;20500;-77
2022/07/27 02:16:12;;;;;;;8.50;1.73;;;;;;;;;;5075057;28;20020;-78
2022/07/27 02:18:39;;;;;;;16.83;2.10;;;;;;;;;;5075530;28;20389;-77
2022/07/27 02:21:06;;;;;;;9.55;1.77;;;;;;;;;;5074624;28;20043;-77
2022/07/27 02:23:32;;;;;;;20.08;3.10;;;;;;;;;;5074361;28;20033;-78
2022/07/27 02:25:58;;;;;;;13.90;1.98;;;;;;;;;;5073868;28;20461;-77
2022/07/27 02:28:24;;;;;;;17.88;2.58;;;;;;;;;;5074487;28;20028;-77
2022/07/27 02:30:50;;;;;;;14.38;2.15;;;;;;;;;;5073696;28;20092;-80
2022/07/27 02:33:16;;;;;;;12.38;2.03;;;;;;;;;;5076302;28;20099;-77
2022/07/27 02:35:42;;;;;;;10.30;2.10;;;;;;;;;;5074229;28;20163;-77
2022/07/27 02:38:08;;;;;;;12.43;1.90;;;;;;;;;;5075518;28;20035;-78
2022/07/27 02:40:34;;;;;;;9.00;1.92;;;;;;;;;;5078998;28;20029;-78
2022/07/27 02:43:00;;;;;;;11.60;2.10;;;;;;;;;;5075295;28;20033;-78
2022/07/27 02:45:26;;;;;;;10.68;1.92;;;;;;;;;;5073852;28;20438;-79
2022/07/27 02:47:52;;;;;;;13.63;2.25;;;;;;;;;;5074290;28;20085;-78
2022/07/27 02:50:18;;;;;;;14.05;1.98;;;;;;;;;;5078055;28;20067;-78
2022/07/27 02:52:44;;;;;;;12.15;2.20;;;;;;;;;;5089821;28;20032;-77
2022/07/27 02:55:10;;;;;;;14.30;2.10;;;;;;;;;;5091347;28;20037;-78
2022/07/27 02:57:39;;;;;;;12.60;2.20;;;;;;;;;;5084662;28;20031;-77
2022/07/27 03:00:06;;;;;;;13.10;2.08;;;;;;;;;;5086334;28;20020;-77
2022/07/27 03:02:32;;;;;;;9.35;2.13;;;;;;;;;;5083876;28;20223;-78
2022/07/27 03:04:58;;;;;;;15.90;2.72;;;;;;;;;;5074951;28;20035;-79
2022/07/27 03:07:24;;;;;;;15.25;2.38;;;;;;;;;;5075924;28;20432;-77
2022/07/27 03:09:50;;;;;;;24.15;2.47;;;;;;;;;;5075962;28;20047;-78
2022/07/27 03:12:16;;;;;;;13.77;1.90;;;;;;;;;;5074376;28;20029;-79
2022/07/27 03:14:42;;;;;;;9.05;1.65;;;;;;;;;;5076545;28;20048;-78
2022/07/27 03:17:08;;;;;;;14.38;2.15;;;;;;;;;;5075865;28;20533;-78
2022/07/27 03:19:34;;;;;;;19.33;2.08;;;;;;;;;;5074616;28;20508;-78
2022/07/27 03:22:00;;;;;;;15.35;2.35;;;;;;;;;;5073568;28;20039;-78
2022/07/27 03:24:26;;;;;;;9.90;1.83;;;;;;;;;;5073637;28;20028;-77
2022/07/27 03:26:52;;;;;;;11.00;2.10;;;;;;;;;;5075150;28;20033;-78
2022/07/27 03:29:17;;;;;;;14.45;1.83;;;;;;;;;;5075890;28;20021;-78
2022/07/27 03:31:44;;;;;;;13.02;2.13;;;;;;;;;;5077097;28;20048;-79
2022/07/27 03:34:10;;;;;;;13.60;2.00;;;;;;;;;;5084137;28;20020;-79
2022/07/27 03:36:36;;;;;;;8.93;1.70;;;;;;;;;;5084087;28;20088;-79
2022/07/27 03:39:02;;;;;;;11.43;2.22;;;;;;;;;;5083062;28;20042;-77
2022/07/27 03:41:28;;;;;;;15.85;2.28;;;;;;;;;;5077827;28;20082;-78
2022/07/27 03:43:54;;;;;;;17.15;2.20;;;;;;;;;;5077564;28;20469;-77
2022/07/27 03:46:19;;;;;;;8.02;1.65;;;;;;;;;;5075689;28;20029;-78
2022/07/27 03:48:45;;;;;;;17.00;2.25;;;;;;;;;;5076373;28;20021;-78
2022/07/27 03:51:12;;;;;;;9.70;1.88;;;;;;;;;;5077325;28;20020;-77
2022/07/27 03:53:38;;;;;;;12.13;2.22;;;;;;;;;;5074811;28;20020;-78
2022/07/27 03:56:04;;;;;;;13.18;2.33;;;;;;;;;;5078974;28;20496;-79
2022/07/27 03:58:30;;;;;;;16.00;3.03;;;;;;;;;;5087536;28;20039;-80
2022/07/27 04:00:56;;;;;;;10.15;2.25;;;;;;;;;;5097128;28;20072;-80
2022/07/27 04:03:22;;;;;;;9.57;1.85;;;;;;;;;;5095913;28;20028;-80
2022/07/27 04:05:48;;;;;;;18.80;2.42;;;;;;;;;;5081755;28;20062;-81
2022/07/27 04:08:16;;;;;;;9.10;2.00;;;;;;;;;;5085912;28;20029;-79
2022/07/27 04:10:42;;;;;;;16.40;2.22;;;;;;;;;;5083175;28;20123;-80
2022/07/27 04:13:08;;;;;;;15.50;2.08;;;;;;;;;;5088029;28;20024;-80
2022/07/27 04:15:34;;;;;;;16.17;2.03;;;;;;;;;;5081690;28;20035;-80
2022/07/27 04:18:00;;;;;;;13.10;1.95;;;;;;;;;;5076329;28;20461;-78
2022/07/27 04:20:26;;;;;;;15.45;2.28;;;;;;;;;;5074393;28;20070;-77
2022/07/27 04:22:52;;;;;;;15.80;2.40;;;;;;;;;;5072923;28;20119;-78
2022/07/27 04:25:18;;;;;;;12.57;2.42;;;;;;;;;;5072897;28;20389;-81
2022/07/27 04:27:44;;;;;;;22.60;2.80;;;;;;;;;;5072948;28;20021;-77
2022/07/27 04:30:10;;;;;;;12.32;2.33;;;;;;;;;;5076733;28;20016;-78
2022/07/27 04:32:36;;;;;;;12.48;2.65;;;;;;;;;;5076179;28;20177;-78
2022/07/27 04:35:02;;;;;;;12.63;2.30;;;;;;;;;;5077638;28;20036;-77
2022/07/27 04:37:29;;;;;;;12.32;2.70;;;;;;;;;;5074582;28;20034;-76
2022/07/27 04:39:56;;;;;;;12.23;1.98;;;;;;;;;;5077558;28;20033;-78
2022/07/27 04:42:22;;;;;;;6.00;2.00;;;;;;;;;;5077238;28;20036;-77
2022/07/27 04:44:48;;;;;;;13.68;2.40;;;;;;;;;;5077025;28;20033;-77
2022/07/27 04:47:14;;;;;;;13.00;2.25;;;;;;;;;;5077881;28;20419;-77
2022/07/27 04:49:40;;;;;;;17.67;2.90;;;;;;;;;;5076186;28;20358;-76
2022/07/27 04:52:06;;;;;;;12.23;2.00;;;;;;;;;;5076959;28;20354;-76
2022/07/27 04:54:32;;;;;;;15.52;2.20;;;;;;;;;;5090206;28;20063;-79
2022/07/27 04:56:58;;;;;;;12.77;2.15;;;;;;;;;;5082817;28;20028;-77
2022/07/27 04:59:24;;;;;;;12.50;2.03;;;;;;;;;;5081923;28;20017;-78
2022/07/27 05:01:50;;;;;;;16.80;2.65;;;;;;;;;;5087208;28;20476;-78
2022/07/27 05:04:16;;;;;;;12.63;2.03;;;;;;;;;;5085087;28;20389;-79
2022/07/27 05:06:42;;;;;;;12.90;2.05;;;;;;;;;;5078769;28;20029;-78
2022/07/27 05:09:08;;;;;;;13.00;2.75;;;;;;;;;;5079623;28;20100;-77
2022/07/27 05:11:34;;;;;;;12.77;2.70;;;;;;;;;;5088145;28;20051;-78
2022/07/27 05:14:01;;;;;;;10.07;2.08;;;;;;;;;;5089428;28;20028;-78
2022/07/27 05:16:27;;;;;;;11.93;2.03;;;;;;;;;;5076205;28;20028;-78
2022/07/27 05:18:53;;;;;;;14.73;2.28;;;;;;;;;;5080705;28;20040;-77
2022/07/27 05:21:19;;;;;;;14.07;2.40;;;;;;;;;;5074664;28;20035;-77
2022/07/27 05:23:44;;;;;;;14.90;2.70;;;;;;;;;;5078150;28;20056;-78
2022/07/27 05:26:11;;;;;;;10.65;1.90;;;;;;;;;;5077386;28;20366;-76
2022/07/27 05:28:37;;;;;;;10.63;2.22;;;;;;;;;;5076970;28;20021;-76
2022/07/27 05:31:03;;;;;;;9.18;1.85;;;;;;;;;;5075072;28;20028;-79
2022/07/27 05:33:28;;;;;;;12.32;1.60;;;;;;;;;;5075577;28;20036;-77
2022/07/27 05:35:55;;;;;;;13.60;2.40;;;;;;;;;;5075471;28;20090;-77
2022/07/27 05:38:21;;;;;;;13.68;2.50;;;;;;;;;;5077785;28;20029;-77
2022/07/27 05:40:47;;;;;;;19.58;3.03;;;;;;;;;;5078132;28;20035;-77
2022/07/27 05:43:13;;;;;;;15.75;2.63;;;;;;;;;;5076949;28;20028;-78
2022/07/27 05:45:39;;;;;;;12.73;2.10;;;;;;;;;;5078170;28;20028;-76
2022/07/27 05:48:05;;;;;;;17.00;2.25;;;;;;;;;;5076659;28;20104;-77
2022/07/27 05:50:31;;;;;;;14.20;2.10;;;;;;;;;;5078557;28;20025;-79
2022/07/27 05:52:59;;;;;;;12.00;2.08;;;;;;;;;;5080188;28;20032;-76
2022/07/27 05:55:25;;;;;;;13.85;2.00;;;;;;;;;;5081645;28;20099;-78
2022/07/27 05:57:51;;;;;;;6.65;1.45;;;;;;;;;;5081972;28;20044;-78
2022/07/27 06:00:17;;;;;;;10.50;1.85;;;;;;;;;;5077646;28;20025;-78
2022/07/27 06:02:43;;;;;;;15.88;2.67;;;;;;;;;;5075756;28;20032;-78
2022/07/27 06:05:09;;;;;;;11.75;2.15;;;;;;;;;;5075081;28;20051;-78
2022/07/27 06:10:20;;;;;;;10.43;2.00;;;;;;;;;;5074998;28;20036;-77
2022/07/27 06:12:46;;;;;;;13.65;1.88;;;;;;;;;;5076496;28;20028;-78
2022/07/27 06:15:13;;;;;;;14.57;2.03;;;;;;;;;;5079019;28;20443;-77
2022/07/27 06:17:39;;;;;;;14.10;2.30;;;;;;;;;;5076890;28;20048;-76
2022/07/27 06:20:06;;;;;;;12.55;2.03;;;;;;;;;;5074470;28;20617;-77
2022/07/27 06:22:32;;;;;;;16.10;2.22;;;;;;;;;;5074490;28;20036;-77
2022/07/27 06:24:58;;;;;;;12.80;2.13;;;;;;;;;;5076414;28;20032;-77
2022/07/27 06:27:24;;;;;;;14.27;2.25;;;;;;;;;;5075592;28;20073;-78
2022/07/27 06:29:50;;;;;;;16.27;2.45;;;;;;;;;;5074445;28;20052;-76
2022/07/27 06:32:16;;;;;;;17.45;2.25;;;;;;;;;;5074636;28;20082;-77
2022/07/27 06:34:42;;;;;;;12.45;2.40;;;;;;;;;;5073323;28;20020;-76
2022/07/27 06:37:08;;;;;;;15.35;2.00;;;;;;;;;;5070257;28;20031;-79
2022/07/27 06:39:34;;;;;;;19.35;5.97;;;;;;;;;;5075177;28;20032;-77
2022/07/27 06:42:00;;;;;;;24.58;6.15;;;;;;;;;;5079203;28;20070;-77
2022/07/27 06:44:26;;;;;;;16.52;2.75;;;;;;;;;;5079026;28;20100;-75
2022/07/27 06:46:52;;;;;;;11.00;2.00;;;;;;;;;;5077683;28;20116;-76
2022/07/27 06:49:18;;;;;;;12.90;2.45;;;;;;;;;;5077022;28;20028;-77
2022/07/27 06:51:44;;;;;;;15.20;1.95;;;;;;;;;;5074660;28;20027;-78
2022/07/27 06:54:10;;;;;;;12.32;2.00;;;;;;;;;;5073698;28;20067;-77
2022/07/27 06:56:37;;;;;;;9.70;1.83;;;;;;;;;;5073689;28;20025;-77
2022/07/27 06:59:03;;;;;;;14.52;2.00;;;;;;;;;;5073878;28;20033;-77
2022/07/27 07:01:29;;;;;;;8.15;1.70;;;;;;;;;;5073763;28;20039;-78
2022/07/27 07:03:56;;;;;;;12.60;1.80;;;;;;;;;;5073644;28;20024;-77
2022/07/27 07:06:23;;;;;;;16.15;2.08;;;;;;;;;;5075168;28;20020;-76
2022/07/27 07:08:49;;;;;;;10.45;2.05;;;;;;;;;;5075052;28;20036;-80
2022/07/27 07:11:15;;;;;;;22.08;2.83;;;;;;;;;;5075406;28;20028;-79
2022/07/27 07:13:41;;;;;;;17.33;2.70;;;;;;;;;;5075124;28;20028;-78
2022/07/27 07:16:07;;;;;;;12.68;2.22;;;;;;;;;;5073109;28;20025;-78
2022/07/27 07:18:33;;;;;;;14.93;3.10;;;;;;;;;;5075736;28;20067;-79
2022/07/27 07:21:00;;;;;;;15.57;2.35;;;;;;;;;;5075394;28;20029;-77
2022/07/27 07:23:26;;;;;;;14.73;2.08;;;;;;;;;;5078765;28;20035;-79
2022/07/27 07:25:52;;;;;;;8.90;1.80;;;;;;;;;;5079222;28;20032;-78
2022/07/27 07:28:20;;;;;;;12.88;2.45;;;;;;;;;;5077069;28;20032;-76
2022/07/27 07:30:47;;;;;;;13.00;2.72;;;;;;;;;;5082109;28;20043;-78
2022/07/27 07:33:13;;;;;;;14.30;2.50;;;;;;;;;;5090787;28;20130;-78
2022/07/27 07:35:39;;;;;;;13.85;2.40;;;;;;;;;;5087358;28;20029;-77
2022/07/27 07:38:04;;;;;;;13.98;2.70;;;;;;;;;;5092718;28;20076;-77
2022/07/27 07:40:30;;;;;;;12.88;2.45;;;;;;;;;;5077787;28;20028;-78
2022/07/27 07:43:01;;;;;;;14.68;2.88;;;;;;;;;;5075743;28;20028;-78
2022/07/27 07:45:28;;;;;;;13.10;1.88;;;;;;;;;;5074071;28;20597;-78
2022/07/27 07:47:55;;;;;;;13.57;2.15;;;;;;;;;;5073528;28;20021;-77
2022/07/27 07:50:21;;;;;;;11.95;2.08;;;;;;;;;;5073542;28;20034;-78
2022/07/27 07:52:48;;;;;;;11.18;1.98;;;;;;;;;;5072013;28;20539;-77
2022/07/27 07:55:15;;;;;;;12.95;2.45;;;;;;;;;;5073488;28;20040;-78
2022/07/27 07:57:41;;;;;;;11.30;1.90;;;;;;;;;;5073395;28;20489;-76
2022/07/27 08:00:08;;;;;;;15.82;2.40;;;;;;;;;;5073639;28;20035;-77
2022/07/27 08:02:48;;;;;;;10.85;2.30;;;;;;;;;;5073441;28;20025;-79
2022/07/27 08:05:14;;;;;;;13.93;2.78;;;;;;;;;;5073137;28;20237;-79
2022/07/27 08:07:40;;;;;;;18.13;2.63;;;;;;;;;;5075087;28;20035;-79
2022/07/27 08:10:07;;;;;;;17.13;2.92;;;;;;;;;;5073066;28;20025;-77
2022/07/27 08:12:34;;;;;;;23.70;5.65;;;;;;;;;;5073816;28;20025;-77
2022/07/27 08:14:59;;;;;;;16.17;2.97;;;;;;;;;;5073958;28;20484;-78
2022/07/27 08:17:25;;;;;;;19.98;2.65;;;;;;;;;;5071774;28;20012;-77
2022/07/27 08:19:51;;;;;;;14.70;2.60;;;;;;;;;;5074028;28;20359;-76
2022/07/27 08:22:17;;;;;;;12.90;1.90;;;;;;;;;;5072934;28;20027;-77
2022/07/27 08:24:43;;;;;;;12.80;2.28;;;;;;;;;;5073901;28;20457;-78
2022/07/27 08:27:09;;;;;;;10.50;1.75;;;;;;;;;;5071821;28;20024;-78
2022/07/27 08:29:35;;;;;;;19.50;3.55;;;;;;;;;;5089477;28;20089;-77
2022/07/27 08:32:01;;;;;;;16.58;2.50;;;;;;;;;;5076533;28;20024;-77
2022/07/27 08:34:27;;;;;;;12.98;2.63;;;;;;;;;;5074709;28;20025;-77
2022/07/27 08:36:53;;;;;;;14.68;2.40;;;;;;;;;;5073662;28;20074;-77
2022/07/27 08:39:19;;;;;;;11.80;2.42;;;;;;;;;;5074508;28;20465;-78
2022/07/27 08:41:45;;;;;;;15.15;1.90;;;;;;;;;;5074397;28;20032;-80
2022/07/27 08:44:13;;;;;;;9.93;2.35;;;;;;;;;;5073784;28;20020;-77
2022/07/27 08:46:39;;;;;;;18.52;2.40;;;;;;;;;;5073897;28;20158;-78
2022/07/27 08:49:06;;;;;;;11.30;2.05;;;;;;;;;;5073470;28;20146;-77
2022/07/27 08:51:33;;;;;;;10.65;1.77;;;;;;;;;;5074267;28;20025;-79
2022/07/27 08:54:00;;;;;;;14.85;2.35;;;;;;;;;;5076543;28;20028;-79
2022/07/27 08:56:26;;;;;;;11.90;1.92;;;;;;;;;;5072821;28;20473;-78
2022/07/27 08:58:52;;;;;;;18.42;2.30;;;;;;;;;;5074267;28;20036;-78
2022/07/27 09:01:19;;;;;;;13.40;2.40;;;;;;;;;;5075842;28;20110;-78
2022/07/27 09:03:45;;;;;;;8.93;1.90;;;;;;;;;;5077099;28;20021;-77
2022/07/27 09:06:10;;;;;;;12.77;2.13;;;;;;;;;;5077700;28;20100;-78
2022/07/27 09:08:40;;;;;;;9.68;1.92;;;;;;;;;;5078902;28;20566;-77
2022/07/27 09:11:15;;;;;;;9.13;2.33;;;;;;;;;;5077566;28;20058;-76
2022/07/27 09:13:41;;;;;;;9.15;1.88;;;;;;;;;;5076615;28;20508;-78
2022/07/27 09:16:09;;;;;;;8.82;1.63;;;;;;;;;;5075356;28;20054;-78
2022/07/27 09:18:36;;;;;;;10.05;1.63;;;;;;;;;;5076461;28;20511;-79
2022/07/27 09:21:09;;;;;;;14.02;1.85;;;;;;;;;;5077070;28;20017;-78
2022/07/27 09:23:46;;;;;;;13.13;2.15;;;;;;;;;;5075409;28;20020;-79
2022/07/27 09:26:32;;;;;;;7.20;1.38;;;;;;;;;;5077360;28;20477;-78
2022/07/27 09:29:06;;;;;;;16.27;2.47;;;;;;;;;;5075548;28;20024;-77
2022/07/27 09:31:32;;;;;;;12.52;1.88;;;;;;;;;;5078813;28;20357;-81
2022/07/27 09:34:01;;;;;;;6.65;1.63;;;;;;;;;;5077084;28;20064;-76
2022/07/27 09:36:29;;;;;;;10.18;2.75;;;;;;;;;;5076405;28;20048;-77
2022/07/27 09:39:01;;;;;;;12.18;1.83;;;;;;;;;;5076667;28;20480;-77
2022/07/27 09:41:27;;;;;;;7.10;2.40;;;;;;;;;;5075954;28;20078;-78
2022/07/27 09:43:54;;;;;;;9.18;1.60;;;;;;;;;;5076338;28;20032;-78
2022/07/27 09:46:31;;;;;;;11.07;1.42;;;;;;;;;;5075649;28;20431;-78
2022/07/27 09:48:57;;;;;;;10.65;1.50;;;;;;;;;;5075011;28;20389;-77
2022/07/27 09:51:24;;;;;;;8.77;1.77;;;;;;;;;;5074873;28;20521;-78
2022/07/27 09:53:50;;;;;;;6.65;1.55;;;;;;;;;;5078104;28;20082;-79
2022/07/27 09:56:16;;;;;;;13.98;1.88;;;;;;;;;;5088666;28;20036;-78
2022/07/27 09:58:55;;;;;;;13.18;2.15;;;;;;;;;;5076229;28;20106;-77
2022/07/27 10:01:22;;;;;;;8.77;1.77;;;;;;;;;;5076825;28;20021;-79
2022/07/27 10:03:49;;;;;;;13.48;2.35;;;;;;;;;;5075910;28;20024;-78
2022/07/27 10:06:15;;;;;;;9.73;1.77;;;;;;;;;;5076217;28;20462;-78
2022/07/27 10:08:44;;;;;;;8.77;1.92;;;;;;;;;;5075899;28;20021;-78
2022/07/27 10:11:11;;;;;;;9.43;2.25;;;;;;;;;;5075694;28;20466;-78
2022/07/27 10:13:37;;;;;;;7.65;1.67;;;;;;;;;;5074967;28;20613;-77
2022/07/27 10:16:04;;;;;;;6.63;1.98;;;;;;;;;;5073946;28;20032;-78
2022/07/27 10:18:49;;;;;;;9.88;2.25;;;;;;;;;;5077989;28;20047;-78
2022/07/27 10:21:15;;;;;;;18.05;2.10;;;;;;;;;;5080932;28;20131;-75
2022/07/27 10:23:53;;;;;;;18.27;2.35;;;;;;;;;;5092891;28;20024;-75
2022/07/27 10:26:21;;;;;;;11.20;1.88;;;;;;;;;;5096994;28;20096;-75
2022/07/27 10:28:51;;;;;;;12.98;1.80;;;;;;;;;;5096649;28;20038;-76
2022/07/27 10:31:18;;;;;;;12.10;1.83;;;;;;;;;;5097133;28;20016;-77
2022/07/27 10:33:47;;;;;;;11.15;1.65;;;;;;;;;;5098130;28;20062;-75
2022/07/27 10:36:14;;;;;;;10.75;2.42;;;;;;;;;;5097799;28;20001;-74
2022/07/27 10:38:51;;;;;;;15.32;2.70;;;;;;;;;;5084501;28;20036;-77
2022/07/27 10:41:24;;;;;;;9.25;2.22;;;;;;;;;;5074689;28;20173;-76
2022/07/27 10:43:51;;;;;;;10.20;2.10;;;;;;;;;;5075294;28;20023;-79
2022/07/27 10:46:20;;;;;;;11.35;1.77;;;;;;;;;;5074502;28;20111;-78
2022/07/27 10:48:46;;;;;;;9.52;1.65;;;;;;;;;;5074463;28;20020;-78
2022/07/27 10:51:14;;;;;;;11.13;1.95;;;;;;;;;;5074253;28;20031;-78
2022/07/27 10:53:41;;;;;;;8.27;1.58;;;;;;;;;;5073640;28;20020;-77
2022/07/27 10:56:08;;;;;;;11.02;3.50;;;;;;;;;;5073749;28;20073;-77
2022/07/27 10:58:34;;;;;;;12.82;2.80;;;;;;;;;;5074167;28;20385;-76
2022/07/27 11:01:01;;;;;;;8.57;2.50;;;;;;;;;;5073989;28;20025;-76
2022/07/27 11:03:27;;;;;;;12.55;1.67;;;;;;;;;;5074017;28;20086;-76
2022/07/27 11:05:56;;;;;;;8.10;1.73;;;;;;;;;;5074693;28;20036;-78
2022/07/27 11:08:24;;;;;;;11.05;1.90;;;;;;;;;;5077001;28;20052;-80
2022/07/27 11:10:50;;;;;;;12.90;2.47;;;;;;;;;;5076422;28;20020;-78
2022/07/27 11:13:20;;;;;;;16.45;2.15;;;;;;;;;;5074086;28;20362;-76
2022/07/27 11:15:56;;;;;;;12.48;2.72;;;;;;;;;;5075836;28;20050;-77
2022/07/27 11:18:26;;;;;;;9.13;1.77;;;;;;;;;;5073999;28;20024;-77
2022/07/27 11:20:52;;;;;;;7.65;2.00;;;;;;;;;;5073657;28;20074;-77
2022/07/27 11:23:19;;;;;;;12.70;1.58;;;;;;;;;;5074390;28;20024;-77
2022/07/27 11:26:00;;;;;;;13.63;2.22;;;;;;;;;;5073392;28;20115;-76
2022/07/27 11:28:30;;;;;;;9.32;1.58;;;;;;;;;;5074409;28;20571;-78
2022/07/27 11:30:56;;;;;;;12.98;2.65;;;;;;;;;;5074089;28;20103;-77
2022/07/27 11:33:22;;;;;;;10.38;2.00;;;;;;;;;;5095578;22;20045;-78
2022/07/27 11:35:55;;;;;;;7.32;2.08;;;;;;;;;;5068284;28;20057;-79
2022/07/27 11:38:21;;;;;;;7.28;1.95;;;;;;;;;;5044031;28;20497;-77
2022/07/27 11:40:52;;;;;;;11.05;1.98;;;;;;;;;;5065600;28;20032;-79
2022/07/27 11:43:34;;;;;;;10.90;2.10;;;;;;;;;;5055592;28;20057;-78
2022/07/27 11:46:26;;;;;;;14.88;2.08;;;;;;;;;;5068381;28;20029;-76
2022/07/27 11:48:52;;;;;;;10.77;2.10;;;;;;;;;;5064129;28;20056;-78
2022/07/27 11:51:18;;;;;;;12.98;2.10;;;;;;;;;;5061058;28;20478;-78
2022/07/27 11:53:45;;;;;;;14.40;2.25;;;;;;;;;;5059231;28;20070;-77
2022/07/27 11:56:11;;;;;;;16.33;2.38;;;;;;;;;;5056452;28;20111;-78
2022/07/27 11:58:55;;;;;;;12.85;2.00;;;;;;;;;;5054095;28;20049;-77
2022/07/27 12:01:28;;;;;;;11.52;2.10;;;;;;;;;;5057182;28;20060;-78
2022/07/27 12:04:05;;;;;;;14.25;3.25;;;;;;;;;;5054941;28;20486;-78
2022/07/27 12:06:32;;;;;;;12.05;1.95;;;;;;;;;;5057802;28;20047;-78
2022/07/27 12:08:59;;;;;;;14.73;2.28;;;;;;;;;;5058859;28;20377;-79
2022/07/27 12:11:28;;;;;;;14.15;2.60;;;;;;;;;;5057899;28;20021;-78
2022/07/27 12:13:58;;;;;;;12.27;2.95;;;;;;;;;;5057989;28;20021;-79
2022/07/27 12:16:24;;;;;;;13.10;2.70;;;;;;;;;;5055687;28;20025;-77
2022/07/27 12:18:50;;;;;;;19.65;3.05;;;;;;;;;;5063576;28;20097;-78
2022/07/27 12:21:17;;;;;;;12.32;2.42;;;;;;;;;;5063995;28;20025;-77
2022/07/27 12:23:50;;;;;;;10.02;1.98;;;;;;;;;;5058898;28;20029;-79
2022/07/27 12:26:17;;;;;;;24.98;2.17;;;;;;;;;;5057374;28;20028;-79
2022/07/27 12:28:43;;;;;;;12.73;2.20;;;;;;;;;;5059887;28;20099;-77
2022/07/27 12:31:16;;;;;;;12.52;1.80;;;;;;;;;;5060696;28;20028;-77
2022/07/27 12:33:41;;;;;;;16.10;2.53;;;;;;;;;;5062838;28;20103;-79
2022/07/27 12:36:09;;;;;;;15.55;2.08;;;;;;;;;;5055446;28;20516;-77
2022/07/27 12:38:45;;;;;;;10.70;1.75;;;;;;;;;;5057489;28;20087;-78
2022/07/27 12:41:22;;;;;;;10.02;1.90;;;;;;;;;;5057756;28;20029;-76
2022/07/27 12:44:03;;;;;;;14.15;2.00;;;;;;;;;;5058941;28;20033;-77
2022/07/27 12:46:29;;;;;;;8.40;1.80;;;;;;;;;;5063975;28;20051;-74
2022/07/27 12:48:55;;;;;;;11.73;1.85;;;;;;;;;;5064031;28;20026;-77
2022/07/27 12:51:25;;;;;;;12.98;1.77;;;;;;;;;;5061827;28;20040;-74
2022/07/27 12:53:51;;;;;;;11.35;1.70;;;;;;;;;;5061656;28;20074;-74
2022/07/27 12:56:17;;;;;;;9.73;2.00;;;;;;;;;;5061919;28;20417;-78
2022/07/27 12:59:03;;;;;;;7.13;1.58;;;;;;;;;;5061269;28;20041;-78
2022/07/27 13:01:29;;;;;;;7.10;1.73;;;;;;;;;;5060368;28;20040;-78
2022/07/27 13:03:55;;;;;;;9.65;1.92;;;;;;;;;;5059035;28;20025;-76
2022/07/27 13:06:21;;;;;;;10.57;1.92;;;;;;;;;;5059467;28;20036;-76
2022/07/27 13:08:47;;;;;;;8.50;1.60;;;;;;;;;;5058331;28;20393;-77
2022/07/27 13:11:13;;;;;;;9.05;1.92;;;;;;;;;;5059651;28;20032;-75
2022/07/27 13:13:39;;;;;;;10.07;2.72;;;;;;;;;;5061562;28;20500;-77
2022/07/27 13:16:05;;;;;;;10.77;1.95;;;;;;;;;;5059629;28;20067;-77
2022/07/27 13:18:31;;;;;;;10.90;1.92;;;;;;;;;;5061562;28;20037;-78
2022/07/27 13:20:57;;;;;;;9.43;1.65;;;;;;;;;;5056748;28;20024;-78
2022/07/27 13:23:23;;;;;;;15.68;2.55;;;;;;;;;;5057743;28;20029;-77
2022/07/27 13:25:50;;;;;;;10.02;2.15;;;;;;;;;;5069327;28;20033;-77
2022/07/27 13:28:16;;;;;;;10.88;2.15;;;;;;;;;;5075019;28;20040;-76
2022/07/27 13:30:42;;;;;;;9.27;2.08;;;;;;;;;;5056576;28;20100;-78
2022/07/27 13:33:08;;;;;;;11.07;1.60;;;;;;;;;;5058447;28;20072;-77
2022/07/27 13:35:34;;;;;;;9.98;1.92;;;;;;;;;;5058456;28;20020;-77
2022/07/27 13:38:00;;;;;;;10.20;2.20;;;;;;;;;;5066649;28;20044;-75
2022/07/27 13:40:26;;;;;;;12.07;2.05;;;;;;;;;;5063765;28;20033;-77
2022/07/27 13:42:51;;;;;;;14.20;2.05;;;;;;;;;;5056815;28;20028;-78
2022/07/27 13:45:17;;;;;;;25.15;14.35;;;;;;;;;;5056898;28;20060;-78
2022/07/27 13:47:43;;;;;;;12.77;2.80;;;;;;;;;;5056645;28;20029;-77
2022/07/27 13:50:12;;;;;;;10.55;3.08;;;;;;;;;;5056231;28;20025;-77
2022/07/27 13:52:38;;;;;;;9.82;2.15;;;;;;;;;;5056562;28;20051;-77
2022/07/27 13:55:04;;;;;;;16.27;3.03;;;;;;;;;;5057929;28;20377;-77
2022/07/27 13:57:30;;;;;;;15.55;2.97;;;;;;;;;;5057470;28;20035;-77
2022/07/27 13:59:58;;;;;;;22.33;7.35;;;;;;;;;;5058087;28;20060;-77
2022/07/27 14:02:24;;;;;;;23.90;9.25;;;;;;;;;;5060005;28;20020;-77
2022/07/27 14:04:50;;;;;;;30.33;14.57;;;;;;;;;;5057476;28;20029;-77
2022/07/27 14:07:16;;;;;;;14.45;4.43;;;;;;;;;;5055820;28;20108;-77
2022/07/27 14:12:27;;;;;;;12.18;2.80;;;;;;;;;;5056774;28;20171;-77
2022/07/27 14:14:53;;;;;;;13.25;2.15;;;;;;;;;;5057357;28;20061;-78
2022/07/27 14:17:19;;;;;;;10.75;2.20;;;;;;;;;;5057395;28;20070;-78
2022/07/27 14:19:45;;;;;;;8.90;2.28;;;;;;;;;;5059558;28;20733;-78
2022/07/27 14:22:11;;;;;;;9.52;2.38;;;;;;;;;;5058722;28;20037;-77
2022/07/27 14:24:37;;;;;;;9.75;1.92;;;;;;;;;;5056693;28;20160;-78
2022/07/27 14:27:03;;;;;;;9.48;1.85;;;;;;;;;;5057018;28;20071;-77
2022/07/27 14:29:29;;;;;;;13.40;1.85;;;;;;;;;;5057043;28;20047;-77
2022/07/27 14:31:55;;;;;;;8.30;1.77;;;;;;;;;;5057686;28;20021;-77
2022/07/27 14:34:21;;;;;;;7.75;1.65;;;;;;;;;;5057401;28;20386;-77
2022/07/27 14:36:48;;;;;;;9.82;2.13;;;;;;;;;;5055314;28;20127;-76
2022/07/27 14:39:14;;;;;;;12.13;2.20;;;;;;;;;;5058274;28;20036;-77
2022/07/27 14:41:40;;;;;;;8.20;1.63;;;;;;;;;;5059736;28;20048;-74